sensor_id;sensor_type;location;lat;lon;timestamp;temperature;humidity
53254;DHT22;39148;53.332;6.922;2022-11-03T00:00:32;12.60;90.60
53254;DHT22;39148;53.332;6.922;2022-11-03T00:08:09;12.70;90.60
53254;DHT22;39148;53.332;6.922;2022-11-03T00:10:35;12.60;90.60
53254;DHT22;39148;53.332;6.922;2022-11-03T00:22:44;12.50;90.50
53254;DHT22;39148;53.332;6.922;2022-11-03T00:25:10;12.70;90.60
53254;DHT22;39148;53.332;6.922;2022-11-03T00:27:36;12.40;90.50
53254;DHT22;39148;53.332;6.922;2022-11-03T00:34:53;12.60;90.60
53254;DHT22;39148;53.332;6.922;2022-11-03T00:37:19;12.50;90.60
53254;DHT22;39148;53.332;6.922;2022-11-03T00:44:36;12.60;90.60
53254;DHT22;39148;53.332;6.922;2022-11-03T00:47:02;12.60;90.60
53254;DHT22;39148;53.332;6.922;2022-11-03T00:49:28;12.60;90.60
53254;DHT22;39148;53.332;6.922;2022-11-03T00:51:53;12.60;90.60
53254;DHT22;39148;53.332;6.922;2022-11-03T00:54:19;12.50;90.60
53254;DHT22;39148;53.332;6.922;2022-11-03T01:01:42;12.50;89.80
53254;DHT22;39148;53.332;6.922;2022-11-03T01:04:09;12.60;90.00
53254;DHT22;39148;53.332;6.922;2022-11-03T01:06:55;12.60;89.90
53254;DHT22;39148;53.332;6.922;2022-11-03T01:09:23;12.60;90.10
53254;DHT22;39148;53.332;6.922;2022-11-03T01:14:21;12.60;90.60
53254;DHT22;39148;53.332;6.922;2022-11-03T01:16:47;12.70;90.20
53254;DHT22;39148;53.332;6.922;2022-11-03T01:24:05;12.60;90.40
53254;DHT22;39148;53.332;6.922;2022-11-03T01:26:31;12.60;90.60
53254;DHT22;39148;53.332;6.922;2022-11-03T01:28:58;12.70;89.90
53254;DHT22;39148;53.332;6.922;2022-11-03T01:31:25;12.60;89.60
53254;DHT22;39148;53.332;6.922;2022-11-03T01:33:52;12.60;89.90
53254;DHT22;39148;53.332;6.922;2022-11-03T01:36:20;12.50;90.60
53254;DHT22;39148;53.332;6.922;2022-11-03T01:38:46;12.40;90.30
53254;DHT22;39148;53.332;6.922;2022-11-03T01:41:15;12.50;90.30
53254;DHT22;39148;53.332;6.922;2022-11-03T01:43:41;12.40;90.50
53254;DHT22;39148;53.332;6.922;2022-11-03T01:48:42;12.40;89.90
53254;DHT22;39148;53.332;6.922;2022-11-03T01:51:13;12.50;90.30
53254;DHT22;39148;53.332;6.922;2022-11-03T01:53:42;12.60;90.00
53254;DHT22;39148;53.332;6.922;2022-11-03T01:56:11;12.50;89.90
53254;DHT22;39148;53.332;6.922;2022-11-03T01:58:39;12.50;89.90
53254;DHT22;39148;53.332;6.922;2022-11-03T02:03:38;12.50;90.60
53254;DHT22;39148;53.332;6.922;2022-11-03T02:06:05;12.60;90.70
53254;DHT22;39148;53.332;6.922;2022-11-03T02:08:54;12.50;90.60
53254;DHT22;39148;53.332;6.922;2022-11-03T02:11:21;12.40;89.90
53254;DHT22;39148;53.332;6.922;2022-11-03T02:14:11;12.50;90.70
53254;DHT22;39148;53.332;6.922;2022-11-03T02:16:38;12.40;90.60
53254;DHT22;39148;53.332;6.922;2022-11-03T02:19:09;12.40;90.00
53254;DHT22;39148;53.332;6.922;2022-11-03T02:24:29;12.40;89.90
53254;DHT22;39148;53.332;6.922;2022-11-03T02:26:56;12.50;90.00
53254;DHT22;39148;53.332;6.922;2022-11-03T02:29:21;12.40;90.60
53254;DHT22;39148;53.332;6.922;2022-11-03T02:31:52;12.40;89.90
53254;DHT22;39148;53.332;6.922;2022-11-03T02:34:30;12.50;90.50
53254;DHT22;39148;53.332;6.922;2022-11-03T02:37:05;12.30;90.60
53254;DHT22;39148;53.332;6.922;2022-11-03T02:39:39;12.50;88.90
53254;DHT22;39148;53.332;6.922;2022-11-03T02:42:06;12.50;89.70
53254;DHT22;39148;53.332;6.922;2022-11-03T02:44:33;12.40;89.90
53254;DHT22;39148;53.332;6.922;2022-11-03T02:47:03;12.50;90.50
53254;DHT22;39148;53.332;6.922;2022-11-03T02:49:30;12.50;90.70
53254;DHT22;39148;53.332;6.922;2022-11-03T02:52:00;12.50;90.70
53254;DHT22;39148;53.332;6.922;2022-11-03T02:54:36;12.40;90.00
53254;DHT22;39148;53.332;6.922;2022-11-03T02:57:20;12.40;90.70
53254;DHT22;39148;53.332;6.922;2022-11-03T03:00:01;12.30;90.20
53254;DHT22;39148;53.332;6.922;2022-11-03T03:05:20;12.40;90.00
53254;DHT22;39148;53.332;6.922;2022-11-03T03:07:50;12.40;90.00
53254;DHT22;39148;53.332;6.922;2022-11-03T03:10:19;12.50;90.10
53254;DHT22;39148;53.332;6.922;2022-11-03T03:12:51;12.40;90.00
53254;DHT22;39148;53.332;6.922;2022-11-03T03:15:19;12.40;90.50
53254;DHT22;39148;53.332;6.922;2022-11-03T03:25:44;12.40;88.90
53254;DHT22;39148;53.332;6.922;2022-11-03T03:28:35;12.40;88.90
53254;DHT22;39148;53.332;6.922;2022-11-03T03:31:04;12.30;90.00
53254;DHT22;39148;53.332;6.922;2022-11-03T03:33:32;12.40;90.00
53254;DHT22;39148;53.332;6.922;2022-11-03T03:36:01;12.40;90.00
53254;DHT22;39148;53.332;6.922;2022-11-03T03:38:32;12.30;90.00
53254;DHT22;39148;53.332;6.922;2022-11-03T03:41:00;12.30;90.70
53254;DHT22;39148;53.332;6.922;2022-11-03T03:43:30;12.40;90.00
53254;DHT22;39148;53.332;6.922;2022-11-03T03:46:00;12.30;90.70
53254;DHT22;39148;53.332;6.922;2022-11-03T03:48:28;12.40;90.60
53254;DHT22;39148;53.332;6.922;2022-11-03T03:53:20;12.20;90.60
53254;DHT22;39148;53.332;6.922;2022-11-03T03:55:48;12.40;90.70
53254;DHT22;39148;53.332;6.922;2022-11-03T03:58:15;12.40;90.40
53254;DHT22;39148;53.332;6.922;2022-11-03T04:03:19;12.40;90.80
53254;DHT22;39148;53.332;6.922;2022-11-03T04:05:45;12.30;89.60
53254;DHT22;39148;53.332;6.922;2022-11-03T04:08:12;12.20;90.50
53254;DHT22;39148;53.332;6.922;2022-11-03T04:13:05;12.30;90.70
53254;DHT22;39148;53.332;6.922;2022-11-03T04:15:49;12.20;90.70
53254;DHT22;39148;53.332;6.922;2022-11-03T04:18:33;12.10;90.70
53254;DHT22;39148;53.332;6.922;2022-11-03T04:21:18;12.30;90.50
53254;DHT22;39148;53.332;6.922;2022-11-03T04:24:02;12.50;89.60
53254;DHT22;39148;53.332;6.922;2022-11-03T04:26:28;12.30;90.40
53254;DHT22;39148;53.332;6.922;2022-11-03T04:28:54;12.20;90.80
53254;DHT22;39148;53.332;6.922;2022-11-03T04:31:20;12.10;90.70
53254;DHT22;39148;53.332;6.922;2022-11-03T04:33:47;12.20;89.90
53254;DHT22;39148;53.332;6.922;2022-11-03T04:36:20;12.40;90.70
53254;DHT22;39148;53.332;6.922;2022-11-03T04:38:47;12.10;90.50
53254;DHT22;39148;53.332;6.922;2022-11-03T04:41:21;12.20;89.10
53254;DHT22;39148;53.332;6.922;2022-11-03T04:43:49;12.20;90.40
53254;DHT22;39148;53.332;6.922;2022-11-03T04:46:20;12.20;90.10
53254;DHT22;39148;53.332;6.922;2022-11-03T04:48:48;12.30;90.10
53254;DHT22;39148;53.332;6.922;2022-11-03T04:51:21;12.20;89.20
53254;DHT22;39148;53.332;6.922;2022-11-03T04:53:49;12.20;90.10
53254;DHT22;39148;53.332;6.922;2022-11-03T04:56:19;12.20;90.70
53254;DHT22;39148;53.332;6.922;2022-11-03T04:58:45;12.30;90.80
53254;DHT22;39148;53.332;6.922;2022-11-03T05:01:14;12.20;90.40
53254;DHT22;39148;53.332;6.922;2022-11-03T05:03:42;12.10;90.70
53254;DHT22;39148;53.332;6.922;2022-11-03T05:06:15;12.30;90.10
53254;DHT22;39148;53.332;6.922;2022-11-03T05:08:44;12.20;90.10
53254;DHT22;39148;53.332;6.922;2022-11-03T05:11:38;12.20;90.80
53254;DHT22;39148;53.332;6.922;2022-11-03T05:14:40;12.20;90.70
53254;DHT22;39148;53.332;6.922;2022-11-03T05:17:24;12.20;89.20
53254;DHT22;39148;53.332;6.922;2022-11-03T05:20:01;12.30;89.20
53254;DHT22;39148;53.332;6.922;2022-11-03T05:22:34;12.10;90.80
53254;DHT22;39148;53.332;6.922;2022-11-03T05:25:24;12.20;90.10
53254;DHT22;39148;53.332;6.922;2022-11-03T05:30:18;12.30;90.90
53254;DHT22;39148;53.332;6.922;2022-11-03T05:32:44;12.20;90.80
53254;DHT22;39148;53.332;6.922;2022-11-03T05:35:20;12.20;90.80
53254;DHT22;39148;53.332;6.922;2022-11-03T05:40:25;12.10;90.40
53254;DHT22;39148;53.332;6.922;2022-11-03T05:42:56;12.20;90.10
53254;DHT22;39148;53.332;6.922;2022-11-03T05:45:28;12.10;90.80
53254;DHT22;39148;53.332;6.922;2022-11-03T05:47:56;12.10;90.20
53254;DHT22;39148;53.332;6.922;2022-11-03T05:50:24;12.00;90.80
53254;DHT22;39148;53.332;6.922;2022-11-03T05:52:56;12.20;90.10
53254;DHT22;39148;53.332;6.922;2022-11-03T05:55:33;12.20;90.10
53254;DHT22;39148;53.332;6.922;2022-11-03T06:03:16;12.20;90.90
53254;DHT22;39148;53.332;6.922;2022-11-03T06:05:45;12.20;90.20
53254;DHT22;39148;53.332;6.922;2022-11-03T06:08:17;12.10;90.10
53254;DHT22;39148;53.332;6.922;2022-11-03T06:10:52;12.20;90.70
53254;DHT22;39148;53.332;6.922;2022-11-03T06:13:36;12.20;90.00
53254;DHT22;39148;53.332;6.922;2022-11-03T06:18:59;12.10;90.80
53254;DHT22;39148;53.332;6.922;2022-11-03T06:21:26;12.20;90.90
53254;DHT22;39148;53.332;6.922;2022-11-03T06:23:53;12.20;90.10
53254;DHT22;39148;53.332;6.922;2022-11-03T06:26:24;12.10;89.30
53254;DHT22;39148;53.332;6.922;2022-11-03T06:28:52;12.00;90.50
53254;DHT22;39148;53.332;6.922;2022-11-03T06:31:23;12.10;89.30
53254;DHT22;39148;53.332;6.922;2022-11-03T06:33:52;12.00;90.90
53254;DHT22;39148;53.332;6.922;2022-11-03T06:36:23;12.10;89.30
53254;DHT22;39148;53.332;6.922;2022-11-03T06:38:53;12.20;90.20
53254;DHT22;39148;53.332;6.922;2022-11-03T06:41:23;12.00;90.70
53254;DHT22;39148;53.332;6.922;2022-11-03T06:43:49;12.10;89.80
53254;DHT22;39148;53.332;6.922;2022-11-03T06:46:23;12.00;90.20
53254;DHT22;39148;53.332;6.922;2022-11-03T06:48:50;12.10;90.40
53254;DHT22;39148;53.332;6.922;2022-11-03T06:51:27;12.20;90.80
53254;DHT22;39148;53.332;6.922;2022-11-03T06:53:57;12.00;90.20
53254;DHT22;39148;53.332;6.922;2022-11-03T06:56:33;12.00;89.30
53254;DHT22;39148;53.332;6.922;2022-11-03T06:58:59;12.10;90.80
53254;DHT22;39148;53.332;6.922;2022-11-03T07:01:29;12.10;90.90
53254;DHT22;39148;53.332;6.922;2022-11-03T07:04:01;12.00;90.20
53254;DHT22;39148;53.332;6.922;2022-11-03T07:06:30;12.20;90.90
53254;DHT22;39148;53.332;6.922;2022-11-03T07:09:01;12.10;89.40
53254;DHT22;39148;53.332;6.922;2022-11-03T07:13:58;12.00;90.20
53254;DHT22;39148;53.332;6.922;2022-11-03T07:18:50;11.90;90.10
53254;DHT22;39148;53.332;6.922;2022-11-03T07:21:30;12.10;90.70
53254;DHT22;39148;53.332;6.922;2022-11-03T07:23:58;12.00;89.70
53254;DHT22;39148;53.332;6.922;2022-11-03T07:26:26;12.00;90.90
53254;DHT22;39148;53.332;6.922;2022-11-03T07:28:51;12.10;90.60
53254;DHT22;39148;53.332;6.922;2022-11-03T07:31:22;12.00;90.70
53254;DHT22;39148;53.332;6.922;2022-11-03T07:33:52;12.10;91.00
53254;DHT22;39148;53.332;6.922;2022-11-03T07:36:20;11.90;90.40
53254;DHT22;39148;53.332;6.922;2022-11-03T07:38:50;12.10;90.40
53254;DHT22;39148;53.332;6.922;2022-11-03T07:41:19;12.00;90.90
53254;DHT22;39148;53.332;6.922;2022-11-03T07:43:51;12.00;90.80
53254;DHT22;39148;53.332;6.922;2022-11-03T07:46:20;11.80;90.40
53254;DHT22;39148;53.332;6.922;2022-11-03T07:49:04;12.00;89.50
53254;DHT22;39148;53.332;6.922;2022-11-03T07:51:36;12.00;90.90
53254;DHT22;39148;53.332;6.922;2022-11-03T07:59:40;12.00;90.50
53254;DHT22;39148;53.332;6.922;2022-11-03T08:02:30;12.10;90.20
53254;DHT22;39148;53.332;6.922;2022-11-03T08:07:23;11.90;90.90
53254;DHT22;39148;53.332;6.922;2022-11-03T08:12:15;12.00;90.40
53254;DHT22;39148;53.332;6.922;2022-11-03T08:14:40;12.00;90.70
53254;DHT22;39148;53.332;6.922;2022-11-03T08:17:06;12.10;90.80
53254;DHT22;39148;53.332;6.922;2022-11-03T08:24:24;11.90;90.90
53254;DHT22;39148;53.332;6.922;2022-11-03T08:26:49;12.10;91.10
53254;DHT22;39148;53.332;6.922;2022-11-03T08:29:15;11.90;91.10
53254;DHT22;39148;53.332;6.922;2022-11-03T08:34:10;12.10;91.00
53254;DHT22;39148;53.332;6.922;2022-11-03T08:36:36;12.10;91.10
53254;DHT22;39148;53.332;6.922;2022-11-03T08:39:02;12.00;90.20
53254;DHT22;39148;53.332;6.922;2022-11-03T08:43:54;12.00;91.10
53254;DHT22;39148;53.332;6.922;2022-11-03T08:46:20;12.00;91.10
53254;DHT22;39148;53.332;6.922;2022-11-03T08:51:13;12.00;90.50
53254;DHT22;39148;53.332;6.922;2022-11-03T09:03:25;12.00;90.60
53254;DHT22;39148;53.332;6.922;2022-11-03T09:18:01;12.10;91.10
53254;DHT22;39148;53.332;6.922;2022-11-03T09:20:27;12.20;91.20
53254;DHT22;39148;53.332;6.922;2022-11-03T09:25:19;12.20;91.00
53254;DHT22;39148;53.332;6.922;2022-11-03T09:27:44;12.10;91.10
53254;DHT22;39148;53.332;6.922;2022-11-03T09:30:11;12.10;90.70
53254;DHT22;39148;53.332;6.922;2022-11-03T09:32:37;12.20;90.80
53254;DHT22;39148;53.332;6.922;2022-11-03T09:35:04;12.20;90.50
53254;DHT22;39148;53.332;6.922;2022-11-03T09:37:30;12.20;90.90
53254;DHT22;39148;53.332;6.922;2022-11-03T09:42:23;12.30;91.00
53254;DHT22;39148;53.332;6.922;2022-11-03T09:44:52;12.30;91.20
53254;DHT22;39148;53.332;6.922;2022-11-03T09:47:30;12.30;90.60
53254;DHT22;39148;53.332;6.922;2022-11-03T09:52:23;12.20;91.20
53254;DHT22;39148;53.332;6.922;2022-11-03T09:54:52;12.20;90.50
53254;DHT22;39148;53.332;6.922;2022-11-03T09:57:20;12.20;91.20
53254;DHT22;39148;53.332;6.922;2022-11-03T09:59:47;12.20;91.00
53254;DHT22;39148;53.332;6.922;2022-11-03T10:02:26;12.10;91.20
53254;DHT22;39148;53.332;6.922;2022-11-03T10:04:54;12.30;90.50
53254;DHT22;39148;53.332;6.922;2022-11-03T10:07:21;12.20;90.70
53254;DHT22;39148;53.332;6.922;2022-11-03T10:09:49;12.30;90.70
53254;DHT22;39148;53.332;6.922;2022-11-03T10:12:15;12.30;90.40
53254;DHT22;39148;53.332;6.922;2022-11-03T10:14:43;12.30;91.20
53254;DHT22;39148;53.332;6.922;2022-11-03T10:17:17;12.30;91.20
53254;DHT22;39148;53.332;6.922;2022-11-03T10:19:50;12.30;90.00
53254;DHT22;39148;53.332;6.922;2022-11-03T10:22:16;12.30;90.60
53254;DHT22;39148;53.332;6.922;2022-11-03T10:27:22;12.20;90.90
53254;DHT22;39148;53.332;6.922;2022-11-03T10:30:04;12.40;90.10
53254;DHT22;39148;53.332;6.922;2022-11-03T10:32:32;12.40;91.20
53254;DHT22;39148;53.332;6.922;2022-11-03T10:34:59;12.50;91.00
53254;DHT22;39148;53.332;6.922;2022-11-03T10:37:26;12.50;90.50
53254;DHT22;39148;53.332;6.922;2022-11-03T10:39:56;12.50;90.50
53254;DHT22;39148;53.332;6.922;2022-11-03T10:42:27;12.50;90.60
53254;DHT22;39148;53.332;6.922;2022-11-03T10:45:18;12.40;90.00
53254;DHT22;39148;53.332;6.922;2022-11-03T10:48:01;12.30;91.30
53254;DHT22;39148;53.332;6.922;2022-11-03T10:50:29;12.50;91.30
53254;DHT22;39148;53.332;6.922;2022-11-03T10:52:55;13.30;90.70
53254;DHT22;39148;53.332;6.922;2022-11-03T10:55:22;12.50;91.30
53254;DHT22;39148;53.332;6.922;2022-11-03T10:57:49;12.60;91.10
53254;DHT22;39148;53.332;6.922;2022-11-03T11:00:15;12.50;90.80
53254;DHT22;39148;53.332;6.922;2022-11-03T11:02:45;12.60;91.00
53254;DHT22;39148;53.332;6.922;2022-11-03T11:05:18;12.60;90.80
53254;DHT22;39148;53.332;6.922;2022-11-03T11:07:44;12.70;90.70
53254;DHT22;39148;53.332;6.922;2022-11-03T11:10:20;12.50;91.30
53254;DHT22;39148;53.332;6.922;2022-11-03T11:15:45;12.60;90.10
53254;DHT22;39148;53.332;6.922;2022-11-03T11:20:58;12.60;90.50
53254;DHT22;39148;53.332;6.922;2022-11-03T11:28:44;12.70;91.20
53254;DHT22;39148;53.332;6.922;2022-11-03T11:31:29;12.70;90.40
53254;DHT22;39148;53.332;6.922;2022-11-03T11:36:48;12.70;90.60
53254;DHT22;39148;53.332;6.922;2022-11-03T11:42:19;12.90;91.00
53254;DHT22;39148;53.332;6.922;2022-11-03T11:44:56;12.90;90.70
53254;DHT22;39148;53.332;6.922;2022-11-03T11:52:45;12.80;90.60
53254;DHT22;39148;53.332;6.922;2022-11-03T11:58:01;13.00;91.30
53254;DHT22;39148;53.332;6.922;2022-11-03T12:00:34;13.00;90.30
53254;DHT22;39148;53.332;6.922;2022-11-03T12:03:05;13.00;91.30
53254;DHT22;39148;53.332;6.922;2022-11-03T12:05:31;13.60;91.00
53254;DHT22;39148;53.332;6.922;2022-11-03T12:07:58;13.00;90.90
53254;DHT22;39148;53.332;6.922;2022-11-03T12:10:29;13.00;90.60
53254;DHT22;39148;53.332;6.922;2022-11-03T12:12:56;13.10;91.40
53254;DHT22;39148;53.332;6.922;2022-11-03T12:16:20;13.30;91.40
53254;DHT22;39148;53.332;6.922;2022-11-03T12:18:41;13.00;90.60
53254;DHT22;39148;53.332;6.922;2022-11-03T12:21:11;13.20;90.60
53254;DHT22;39148;53.332;6.922;2022-11-03T12:23:46;13.20;91.40
53254;DHT22;39148;53.332;6.922;2022-11-03T12:28:43;13.10;90.30
53254;DHT22;39148;53.332;6.922;2022-11-03T12:36:01;13.20;91.40
53254;DHT22;39148;53.332;6.922;2022-11-03T12:40:52;13.10;90.60
53254;DHT22;39148;53.332;6.922;2022-11-03T12:48:10;13.10;91.20
53254;DHT22;39148;53.332;6.922;2022-11-03T12:50:36;13.20;91.30
53254;DHT22;39148;53.332;6.922;2022-11-03T12:53:04;13.30;90.70
53254;DHT22;39148;53.332;6.922;2022-11-03T12:55:31;13.40;90.40
53254;DHT22;39148;53.332;6.922;2022-11-03T12:57:57;13.40;90.70
53254;DHT22;39148;53.332;6.922;2022-11-03T13:00:23;13.40;91.20
53254;DHT22;39148;53.332;6.922;2022-11-03T13:07:42;13.40;90.70
53254;DHT22;39148;53.332;6.922;2022-11-03T13:10:08;13.60;90.90
53254;DHT22;39148;53.332;6.922;2022-11-03T13:12:34;13.50;90.50
53254;DHT22;39148;53.332;6.922;2022-11-03T13:15:05;13.50;91.20
53254;DHT22;39148;53.332;6.922;2022-11-03T13:17:31;13.50;91.30
53254;DHT22;39148;53.332;6.922;2022-11-03T13:19:58;13.60;91.00
53254;DHT22;39148;53.332;6.922;2022-11-03T13:24:50;13.50;90.80
53254;DHT22;39148;53.332;6.922;2022-11-03T13:27:16;13.60;91.30
53254;DHT22;39148;53.332;6.922;2022-11-03T13:34:33;13.50;91.20
53254;DHT22;39148;53.332;6.922;2022-11-03T13:36:59;13.60;91.30
53254;DHT22;39148;53.332;6.922;2022-11-03T13:39:25;13.50;91.20
53254;DHT22;39148;53.332;6.922;2022-11-03T13:44:17;13.50;91.20
53254;DHT22;39148;53.332;6.922;2022-11-03T13:46:42;13.70;91.20
53254;DHT22;39148;53.332;6.922;2022-11-03T13:51:34;13.70;90.50
53254;DHT22;39148;53.332;6.922;2022-11-03T13:54:00;13.50;90.80
53254;DHT22;39148;53.332;6.922;2022-11-03T14:01:18;13.70;91.20
53254;DHT22;39148;53.332;6.922;2022-11-03T14:06:09;13.60;91.10
53254;DHT22;39148;53.332;6.922;2022-11-03T14:11:01;13.70;91.20
53254;DHT22;39148;53.332;6.922;2022-11-03T14:16:13;13.70;91.10
53254;DHT22;39148;53.332;6.922;2022-11-03T14:18:38;13.60;91.10
53254;DHT22;39148;53.332;6.922;2022-11-03T14:21:04;13.70;91.10
53254;DHT22;39148;53.332;6.922;2022-11-03T14:28:22;13.80;91.10
53254;DHT22;39148;53.332;6.922;2022-11-03T14:30:47;13.80;91.10
53254;DHT22;39148;53.332;6.922;2022-11-03T14:38:05;13.60;90.70
53254;DHT22;39148;53.332;6.922;2022-11-03T14:40:32;13.80;90.50
53254;DHT22;39148;53.332;6.922;2022-11-03T14:43:16;13.80;90.20
53254;DHT22;39148;53.332;6.922;2022-11-03T14:45:42;13.70;90.40
53254;DHT22;39148;53.332;6.922;2022-11-03T14:48:08;13.80;91.10
53254;DHT22;39148;53.332;6.922;2022-11-03T14:50:33;13.80;91.10
53254;DHT22;39148;53.332;6.922;2022-11-03T14:55:25;13.80;91.10
53254;DHT22;39148;53.332;6.922;2022-11-03T14:57:51;13.90;90.70
53254;DHT22;39148;53.332;6.922;2022-11-03T15:00:16;13.80;90.70
53254;DHT22;39148;53.332;6.922;2022-11-03T15:05:08;14.00;90.80
53254;DHT22;39148;53.332;6.922;2022-11-03T15:10:20;13.90;90.80
53254;DHT22;39148;53.332;6.922;2022-11-03T15:12:45;13.80;90.80
53254;DHT22;39148;53.332;6.922;2022-11-03T15:15:11;13.90;90.80
53254;DHT22;39148;53.332;6.922;2022-11-03T15:17:37;13.80;91.00
53254;DHT22;39148;53.332;6.922;2022-11-03T15:20:03;13.90;91.00
53254;DHT22;39148;53.332;6.922;2022-11-03T15:24:55;13.80;90.30
53254;DHT22;39148;53.332;6.922;2022-11-03T15:27:20;13.80;90.80
53254;DHT22;39148;53.332;6.922;2022-11-03T15:29:46;13.90;90.70
53254;DHT22;39148;53.332;6.922;2022-11-03T15:32:12;13.90;90.90
53254;DHT22;39148;53.332;6.922;2022-11-03T15:34:37;13.80;90.90
53254;DHT22;39148;53.332;6.922;2022-11-03T15:37:03;13.70;90.90
53254;DHT22;39148;53.332;6.922;2022-11-03T15:41:55;13.80;91.00
53254;DHT22;39148;53.332;6.922;2022-11-03T15:46:47;13.90;91.00
53254;DHT22;39148;53.332;6.922;2022-11-03T15:56:31;13.80;90.90
53254;DHT22;39148;53.332;6.922;2022-11-03T15:58:57;13.90;90.90
53254;DHT22;39148;53.332;6.922;2022-11-03T16:03:49;13.90;90.90
53254;DHT22;39148;53.332;6.922;2022-11-03T16:06:15;13.90;90.00
53254;DHT22;39148;53.332;6.922;2022-11-03T16:08:40;13.70;90.90
53254;DHT22;39148;53.332;6.922;2022-11-03T16:15:58;13.90;90.60
53254;DHT22;39148;53.332;6.922;2022-11-03T16:18:24;13.80;90.70
53254;DHT22;39148;53.332;6.922;2022-11-03T16:20:49;13.90;90.70
53254;DHT22;39148;53.332;6.922;2022-11-03T16:23:15;13.80;90.70
53254;DHT22;39148;53.332;6.922;2022-11-03T16:25:41;13.80;90.90
53254;DHT22;39148;53.332;6.922;2022-11-03T16:28:06;13.90;90.80
53254;DHT22;39148;53.332;6.922;2022-11-03T16:30:32;13.60;90.80
53254;DHT22;39148;53.332;6.922;2022-11-03T16:35:25;13.70;90.60
53254;DHT22;39148;53.332;6.922;2022-11-03T16:37:51;13.80;90.80
53254;DHT22;39148;53.332;6.922;2022-11-03T16:45:17;13.80;90.40
53254;DHT22;39148;53.332;6.922;2022-11-03T16:47:44;13.90;90.40
53254;DHT22;39148;53.332;6.922;2022-11-03T16:50:10;13.90;90.60
53254;DHT22;39148;53.332;6.922;2022-11-03T16:55:03;13.90;90.90
53254;DHT22;39148;53.332;6.922;2022-11-03T16:57:29;13.70;89.80
53254;DHT22;39148;53.332;6.922;2022-11-03T17:04:46;13.90;90.90
53254;DHT22;39148;53.332;6.922;2022-11-03T17:07:12;13.90;90.90
53254;DHT22;39148;53.332;6.922;2022-11-03T17:12:04;13.80;90.90
53254;DHT22;39148;53.332;6.922;2022-11-03T17:14:30;13.80;90.90
53254;DHT22;39148;53.332;6.922;2022-11-03T17:16:55;13.80;90.80
53254;DHT22;39148;53.332;6.922;2022-11-03T17:19:21;13.80;90.80
53254;DHT22;39148;53.332;6.922;2022-11-03T17:21:47;13.80;90.80
53254;DHT22;39148;53.332;6.922;2022-11-03T17:27:05;13.80;90.80
53254;DHT22;39148;53.332;6.922;2022-11-03T17:29:39;13.80;90.10
53254;DHT22;39148;53.332;6.922;2022-11-03T17:32:09;13.80;90.10
53254;DHT22;39148;53.332;6.922;2022-11-03T17:34:36;13.70;90.80
53254;DHT22;39148;53.332;6.922;2022-11-03T17:37:02;13.90;90.20
53254;DHT22;39148;53.332;6.922;2022-11-03T17:39:31;13.90;90.80
53254;DHT22;39148;53.332;6.922;2022-11-03T17:42:19;13.60;90.00
53254;DHT22;39148;53.332;6.922;2022-11-03T17:44:48;13.70;90.80
53254;DHT22;39148;53.332;6.922;2022-11-03T17:47:15;13.90;90.30
53254;DHT22;39148;53.332;6.922;2022-11-03T17:49:42;13.80;90.00
53254;DHT22;39148;53.332;6.922;2022-11-03T17:54:43;13.70;90.30
53254;DHT22;39148;53.332;6.922;2022-11-03T17:57:15;13.70;90.80
53254;DHT22;39148;53.332;6.922;2022-11-03T17:59:42;13.90;90.10
53254;DHT22;39148;53.332;6.922;2022-11-03T18:02:23;13.80;90.10
53254;DHT22;39148;53.332;6.922;2022-11-03T18:04:49;13.70;89.70
53254;DHT22;39148;53.332;6.922;2022-11-03T18:07:19;13.80;90.80
53254;DHT22;39148;53.332;6.922;2022-11-03T18:09:46;13.60;90.20
53254;DHT22;39148;53.332;6.922;2022-11-03T18:12:13;13.70;90.10
53254;DHT22;39148;53.332;6.922;2022-11-03T18:15:02;13.60;90.70
53254;DHT22;39148;53.332;6.922;2022-11-03T18:17:28;13.70;90.40
53254;DHT22;39148;53.332;6.922;2022-11-03T18:19:54;13.80;90.90
53254;DHT22;39148;53.332;6.922;2022-11-03T18:22:20;13.80;90.50
53254;DHT22;39148;53.332;6.922;2022-11-03T18:24:47;13.60;90.80
53254;DHT22;39148;53.332;6.922;2022-11-03T18:27:14;13.70;90.20
53254;DHT22;39148;53.332;6.922;2022-11-03T18:29:40;13.70;90.90
53254;DHT22;39148;53.332;6.922;2022-11-03T18:32:13;13.60;90.10
53254;DHT22;39148;53.332;6.922;2022-11-03T18:37:08;13.70;90.20
53254;DHT22;39148;53.332;6.922;2022-11-03T18:39:35;13.70;90.90
53254;DHT22;39148;53.332;6.922;2022-11-03T18:44:28;13.70;90.60
53254;DHT22;39148;53.332;6.922;2022-11-03T18:46:55;13.60;90.90
53254;DHT22;39148;53.332;6.922;2022-11-03T18:49:23;13.70;90.50
53254;DHT22;39148;53.332;6.922;2022-11-03T18:51:54;13.60;90.80
53254;DHT22;39148;53.332;6.922;2022-11-03T18:54:21;13.50;90.90
53254;DHT22;39148;53.332;6.922;2022-11-03T18:56:50;13.70;90.00
53254;DHT22;39148;53.332;6.922;2022-11-03T18:59:22;13.50;90.80
53254;DHT22;39148;53.332;6.922;2022-11-03T19:01:49;13.60;90.80
53254;DHT22;39148;53.332;6.922;2022-11-03T19:06:43;13.70;90.50
53254;DHT22;39148;53.332;6.922;2022-11-03T19:09:12;13.70;90.30
53254;DHT22;39148;53.332;6.922;2022-11-03T19:14:06;13.80;91.00
53254;DHT22;39148;53.332;6.922;2022-11-03T19:16:34;13.70;91.00
53254;DHT22;39148;53.332;6.922;2022-11-03T19:21:26;13.70;90.60
53254;DHT22;39148;53.332;6.922;2022-11-03T19:23:52;13.60;90.50
53254;DHT22;39148;53.332;6.922;2022-11-03T19:26:21;13.70;91.10
53254;DHT22;39148;53.332;6.922;2022-11-03T19:28:51;13.40;90.30
53254;DHT22;39148;53.332;6.922;2022-11-03T19:31:31;13.60;90.90
53254;DHT22;39148;53.332;6.922;2022-11-03T19:36:26;13.60;90.40
53254;DHT22;39148;53.332;6.922;2022-11-03T19:41:18;13.60;91.10
53254;DHT22;39148;53.332;6.922;2022-11-03T19:44:09;13.70;90.40
53254;DHT22;39148;53.332;6.922;2022-11-03T19:46:36;13.50;91.00
53254;DHT22;39148;53.332;6.922;2022-11-03T19:49:03;13.60;90.20
53254;DHT22;39148;53.332;6.922;2022-11-03T19:51:28;13.70;91.10
53254;DHT22;39148;53.332;6.922;2022-11-03T19:53:55;13.60;90.40
53254;DHT22;39148;53.332;6.922;2022-11-03T19:56:22;13.60;90.70
53254;DHT22;39148;53.332;6.922;2022-11-03T19:58:47;13.70;91.00
53254;DHT22;39148;53.332;6.922;2022-11-03T20:01:13;13.70;90.30
53254;DHT22;39148;53.332;6.922;2022-11-03T20:06:06;13.60;90.30
53254;DHT22;39148;53.332;6.922;2022-11-03T20:08:32;13.50;90.70
53254;DHT22;39148;53.332;6.922;2022-11-03T20:10:58;14.20;90.40
53254;DHT22;39148;53.332;6.922;2022-11-03T20:13:26;13.40;90.90
53254;DHT22;39148;53.332;6.922;2022-11-03T20:18:21;13.50;91.10
53254;DHT22;39148;53.332;6.922;2022-11-03T20:20:47;13.60;90.40
53254;DHT22;39148;53.332;6.922;2022-11-03T20:23:21;13.60;89.90
53254;DHT22;39148;53.332;6.922;2022-11-03T20:25:48;13.60;90.90
53254;DHT22;39148;53.332;6.922;2022-11-03T20:28:19;13.50;89.80
53254;DHT22;39148;53.332;6.922;2022-11-03T20:30:46;13.50;90.90